Dow, Illinois
Current Conditions -  °F | °C
As of 5:54 PM on Monday 24 Nov 2014 (Local Time) from KSET Reporting Station
Overcast Overcast  
Wind Chill: 31°   Ceiling: 4400
Heat Index: 39°   Visibility: 10mi
Dew Point: 28°   Wind: 14mph
Humidity: 65%   Direction: 280°W
Pressure: 29.88"   Gusts: NA
Location:  39.01°N, 90.34°W
Report Text: KSET 242354Z AUTO 28012KT 10SM OVC044 04/M02 A2988 RMK AO2 SLP120 T00391022 10039 20033 51034
Loading
Personal Weather Stations






























Interactive Weather Map New forecast layout! Learn more

10-Day Weather Forecast

Advertisements
Track Severe Weather on mobile